Time,TemperatureF,DewpointF,PressureIn,WindDirection,WindDirectionDegrees,WindSpeedMPH,WindSpeedGustMPH,Humidity,HourlyPrecipIn,Conditions,Clouds,dailyrainin,SoftwareType,DateUTC
2013-09-16 00:52:00,64.0,60.0,29.77,North,359,1.0,9.0,88,48.85,,,-99.99,,2013-09-16 07:52:00,
2013-09-16 01:02:00,64.0,60.0,29.77,North,359,1.0,9.0,88,48.85,,,-99.99,,2013-09-16 08:02:00,
2013-09-16 01:11:00,64.0,60.0,29.77,North,359,1.0,9.0,88,48.85,,,-99.99,,2013-09-16 08:11:00,
2013-09-16 01:21:00,64.0,60.0,29.77,North,359,1.0,9.0,88,48.85,,,-99.99,,2013-09-16 08:21:00,
2013-09-16 02:11:00,63.0,60.0,29.78,North,0,0.0,0.0,90,48.85,,,-99.99,,2013-09-16 09:11:00,
2013-09-16 02:22:00,63.0,60.0,29.78,North,0,0.0,0.0,90,48.85,,,-99.99,,2013-09-16 09:22:00,
2013-09-16 02:33:00,63.0,60.0,29.78,North,0,0.0,0.0,90,48.85,,,-99.99,,2013-09-16 09:33:00,
2013-09-16 06:42:00,60.0,59.0,29.84,North,0,0.0,0.0,96,48.93,,,-99.99,,2013-09-16 13:42:00,
2013-09-16 07:11:00,60.0,59.0,29.84,North,0,0.0,0.0,96,48.93,,,-99.99,,2013-09-16 14:11:00,
2013-09-16 07:21:00,60.0,59.0,29.84,North,0,0.0,0.0,96,48.93,,,-99.99,,2013-09-16 14:21:00,
2013-09-16 07:32:00,60.0,59.0,29.84,North,0,0.0,0.0,96,48.93,,,-99.99,,2013-09-16 14:32:00,
2013-09-16 14:11:00,64.0,60.0,29.88,SW,222,2.0,7.0,88,48.94,,,-99.99,,2013-09-16 21:11:00,
2013-09-16 14:21:00,64.0,60.0,29.88,SW,222,2.0,7.0,88,48.94,,,-99.99,,2013-09-16 21:21:00,
2013-09-16 14:34:00,64.0,60.0,29.88,SW,222,2.0,7.0,88,48.94,,,-99.99,,2013-09-16 21:34:00,
2013-09-16 20:54:00,62.0,59.0,29.85,North,0,0.0,0.0,89,48.94,,,-99.99,,2013-09-17 03:54:00,
2013-09-16 21:04:00,62.0,59.0,29.85,North,0,0.0,0.0,89,48.94,,,-99.99,,2013-09-17 04:04:00,
2013-09-16 21:14:00,62.0,59.0,29.85,North,0,0.0,0.0,89,48.94,,,-99.99,,2013-09-17 04:14:00,
2013-09-16 21:24:00,62.0,59.0,29.85,North,0,0.0,0.0,89,48.94,,,-99.99,,2013-09-17 04:24:00,
2013-09-16 22:23:00,60.0,59.0,29.85,SSE,152,1.0,6.0,95,48.96,,,-99.99,,2013-09-17 05:23:00,
2013-09-16 22:34:00,60.0,59.0,29.85,SSE,152,1.0,6.0,95,48.96,,,-99.99,,2013-09-17 05:34:00,
2013-09-16 22:52:00,60.0,59.0,29.85,SSE,152,1.0,6.0,95,48.96,,,-99.99,,2013-09-17 05:52:00,
2013-09-16 23:12:00,60.0,59.0,29.85,South,169,2.0,4.0,95,48.97,,,-99.99,,2013-09-17 06:12:00,
2013-09-16 23:22:00,60.0,59.0,29.85,SSW,207,0.0,3.0,95,48.97,,,-99.99,,2013-09-17 06:22:00,
2013-09-16 23:52:00,60.0,59.0,29.85,SSW,208,1.0,5.0,96,48.97,,,-99.99,,2013-09-17 06:52:00,